METAR Data
IDs: Format: Raw Decoded Include TAF

Data at: 0748 UTC 23 Feb 2019

PAMB 230656Z AUTO 03011KT 10SM FEW065 BKN095 OVC110 M05/M08 A3023 RMK AO2 SLP245 T10501078 FZRANO $
PAMB 230556Z AUTO 03012KT 10SM OVC070 M05/M08 A3024 RMK AO2 SLP247 T10501078 11006 21061 53003 FZRANO $
PAMB 230456Z AUTO 03011KT 10SM BKN090 M06/M08 A3023 RMK AO2 SLP243 T10561083 FZRANO $
PAMB 230356Z AUTO 03010KT 10SM CLR M06/M08 A3023 RMK AO2 SLP243 T10561083 FZRANO $
PAMB 230256Z AUTO 03009KT 10SM CLR M06/M07 A3023 RMK AO2 SLP243 T10561072 56006 FZRANO $
PAMB 230156Z AUTO 05010KT 10SM CLR M04/M07 A3023 RMK AO2 SLP244 T10391067 FZRANO $
PAMB 230056Z AUTO 04009KT 10SM CLR M02/M06 A3024 RMK AO2 SLP246 T10221056 FZRANO $
PAMB 222356Z AUTO 06008KT 10SM CLR M01/M05 A3025 RMK AO2 SLP250 T10061050 11006 21067 58007 FZRANO $
PAMB 222256Z AUTO 05008KT 10SM CLR M02/M06 A3026 RMK AO2 SLP253 T10171056 FZRANO $
PAMB 222156Z AUTO 04011KT 10SM BKN080 M04/M07 A3027 RMK AO2 SLP256 T10441072 FZRANO $
PAMB 222056Z AUTO 03008KT 10SM CLR M06/M08 A3027 RMK AO2 SLP257 T10561078 52000 FZRANO $
PAMB 221956Z AUTO 05009KT 10SM CLR M07/M08 A3027 RMK AO2 SLP257 T10671083 FZRANO $
PAMB 221856Z AUTO 04009KT 10SM FEW026 BKN034 OVC100 M06/M07 A3026 RMK AO2 SLP256 T10611072 FZRANO $
PAMB 221756Z AUTO 04009KT 10SM OVC034 M06/M07 A3027 RMK AO2 SLP256 T10611072 11044 21067 56003 FZRANO $
PAMB 221656Z AUTO 04008KT 10SM OVC034 M06/M07 A3027 RMK AO2 SLP256 T10561067 FZRANO $
PAMB 221556Z AUTO 04008KT 10SM OVC030 M05/M07 A3027 RMK AO2 SLP258 T10501067 FZRANO $
PAMB 221519Z AUTO 04007KT 10SM OVC030 M05/M06 A3028 RMK AO2 FZRANO $
PAMB 221456Z AUTO 05006KT 10SM OVC028 M04/M06 A3028 RMK AO2 SLP260 T10441061 56003 FZRANO $
PAMB 221437Z AUTO 05005KT 10SM OVC028 M04/M06 A3028 RMK AO2 FZRANO $
PAMB 221356Z AUTO 04006KT 10SM OVC030 M06/M07 A3028 RMK AO2 SLP260 T10561072 FZRANO $
PAMB 221325Z AUTO 04003KT 10SM BKN028 BKN120 M06/M08 A3028 RMK AO2 FZRANO $
PAMB 221256Z AUTO 04006KT 10SM BKN030 BKN120 M07/M08 A3028 RMK AO2 SLP259 T10671083 FZRANO $
PAMB 221156Z AUTO 35004KT 10SM FEW023 SCT032 BKN042 M05/M07 A3029 RMK AO2 SLP263 T10501072 11028 21050 53001 FZRANO $
PAMB 221056Z AUTO 00000KT 10SM FEW023 SCT100 M04/M07 A3028 RMK AO2 SLP261 T10391067 FZRANO $
PAMB 221054Z AUTO 00000KT 10SM FEW023 BKN100 M04/M07 A3028 RMK AO2 FZRANO $
PAMB 221031Z AUTO 04003KT 10SM BKN023 BKN100 M05/M07 A3029 RMK AO2 FZRANO $
PAMB 220956Z AUTO 00000KT 10SM OVC100 M03/M07 A3028 RMK AO2 SLP262 T10331067 FZRANO $
PAMB 220929Z AUTO 00000KT 10SM SCT024 OVC100 M03/M07 A3029 RMK AO2 FZRANO $
PAMB 220905Z AUTO 00000KT 10SM BKN024 M05/M07 A3028 RMK AO2 FZRANO $
PAMB 220856Z AUTO 31003KT 10SM SCT024 BKN070 M05/M07 A3028 RMK AO2 SLP262 T10501067 400171050 53009 FZRANO $
PAMB 220756Z AUTO 00000KT 10SM OVC090 M04/M07 A3027 RMK AO2 SLP258 T10391067 FZRANO $
PAMB 220656Z AUTO 09003KT 10SM OVC100 M04/M07 A3026 RMK AO2 SLP255 T10391067 FZRANO $
PAMB 220556Z AUTO 30003KT 10SM OVC100 M03/M07 A3026 RMK AO2 SLP252 T10281067 10017 21039 50001 FZRANO $
PAMB 220456Z AUTO 29003KT 10SM FEW120 M03/M07 A3027 RMK AO2 SLP256 T10331067 FZRANO $
PAMB 220356Z AUTO 00000KT 10SM FEW120 M03/M07 A3026 RMK AO2 SLP253 T10331067 FZRANO $
PAMB 220256Z AUTO 32004KT 10SM CLR M02/M06 A3025 RMK AO2 SLP252 T10221061 53013 FZRANO $
PAMB 220156Z AUTO VRB03KT 10SM CLR M01/M06 A3024 RMK AO2 SLP246 T10111056 FZRANO $
PAMB 220056Z AUTO 27012KT 10SM CLR M01/M05 A3022 RMK AO2 SLP241 T10061050 FZRANO $
PAMB 212356Z AUTO 27010KT 9SM CLR 01/M04 A3022 RMK AO2 SLP238 60000 T00111044 10017 21044 51009 FZRANO $
PAMB 212256Z AUTO 26009KT 9SM CLR 01/M04 A3021 RMK AO2 SLP237 T00111044 FZRANO $
PAMB 212156Z AUTO 27011KT 9SM CLR 01/M04 A3020 RMK AO2 SLP233 T00111039 FZRANO $
PAMB 212056Z AUTO 26010KT 8SM CLR 01/M04 A3019 RMK AO2 SNE01 SLP230 P0000 60000 T00061039 51027 FZRANO $
PAMB 211956Z AUTO 27007KT 5SM -SN CLR 00/M03 A3017 RMK AO2 SNB51 SLP222 P0000 T00001033 FZRANO $